createdAt,value
2023-05-12T00:00:32.112Z,25.60
2023-05-12T00:01:33.004Z,26.00
2023-05-12T00:02:33.982Z,25.40
2023-05-12T00:03:34.715Z,26.20
2023-05-12T00:04:35.240Z,26.30
2023-05-12T00:05:36.131Z,25.00
2023-05-12T00:06:37.025Z,24.70
2023-05-12T00:07:37.919Z,24.60
2023-05-12T00:08:38.786Z,24.20
2023-05-12T00:09:39.691Z,23.70
2023-05-12T00:10:40.601Z,22.80
2023-05-12T00:11:41.488Z,22.60
2023-05-12T00:12:42.391Z,21.90
2023-05-12T00:13:43.426Z,21.20
2023-05-12T00:14:43.900Z,21.50
2023-05-12T00:15:44.793Z,22.20
2023-05-12T00:16:45.720Z,22.20
2023-05-12T00:17:46.634Z,22.30
2023-05-12T00:18:47.604Z,22.10
2023-05-12T00:19:48.491Z,22.20
2023-05-12T00:20:49.429Z,20.70
2023-05-12T00:21:50.372Z,21.30
2023-05-12T00:22:51.256Z,21.30
2023-05-12T00:23:52.197Z,20.60
2023-05-12T00:24:53.104Z,23.50
2023-05-12T00:25:54.010Z,21.20
2023-05-12T00:26:54.885Z,20.70
2023-05-12T00:27:55.787Z,23.90
2023-05-12T00:28:56.703Z,23.00
2023-05-12T00:29:57.597Z,22.90
2023-05-12T00:30:58.479Z,23.10
2023-05-12T00:31:59.431Z,23.00
2023-05-12T00:33:00.382Z,23.10
2023-05-12T00:34:00.837Z,22.70
2023-05-12T00:35:01.722Z,22.70
2023-05-12T00:36:02.612Z,22.20
2023-05-12T00:37:03.508Z,22.00
2023-05-12T00:38:04.400Z,23.20
2023-05-12T00:39:05.373Z,23.00
2023-05-12T00:40:06.309Z,24.40
2023-05-12T00:41:07.208Z,24.10
2023-05-12T00:42:08.169Z,22.80
2023-05-12T00:43:09.085Z,24.30
2023-05-12T00:44:09.976Z,24.30
2023-05-12T00:45:10.879Z,23.80
2023-05-12T00:46:11.814Z,24.70
2023-05-12T00:47:12.711Z,25.40
2023-05-12T00:48:13.610Z,26.70
2023-05-12T00:49:14.496Z,25.60
2023-05-12T00:50:15.389Z,26.30
2023-05-12T00:51:16.275Z,25.90
2023-05-12T00:52:17.328Z,25.30
2023-05-12T00:53:17.721Z,25.80
2023-05-12T00:54:18.605Z,26.20
2023-05-12T00:55:19.495Z,26.20
2023-05-12T00:56:20.430Z,25.80
2023-05-12T00:57:21.318Z,24.80
2023-05-12T00:58:22.193Z,25.50
2023-05-12T00:59:23.105Z,25.90
2023-05-12T01:00:23.990Z,25.30
2023-05-12T01:01:24.924Z,24.00
2023-05-12T01:02:25.873Z,24.90
2023-05-12T01:03:26.789Z,24.80
2023-05-12T01:04:27.646Z,24.40
2023-05-12T01:05:28.602Z,25.10
2023-05-12T01:06:29.496Z,25.10
2023-05-12T01:07:30.396Z,24.20
2023-05-12T01:08:31.275Z,24.40
2023-05-12T01:09:32.162Z,23.80
2023-05-12T01:10:33.068Z,23.20
2023-05-12T01:11:33.986Z,24.80
2023-05-12T01:12:34.865Z,24.40
2023-05-12T01:13:35.754Z,23.60
2023-05-12T01:14:36.989Z,24.00
2023-05-12T01:15:37.456Z,25.40
2023-05-12T01:16:38.309Z,24.90
2023-05-12T01:17:39.470Z,24.00
2023-05-12T01:18:40.030Z,24.90
2023-05-12T01:19:40.910Z,24.00
2023-05-12T01:20:41.808Z,23.60
2023-05-12T01:21:42.686Z,23.60
2023-05-12T01:22:43.615Z,24.60
2023-05-12T01:23:44.490Z,24.30
2023-05-12T01:24:45.414Z,24.80
2023-05-12T01:25:46.310Z,23.50
2023-05-12T01:26:47.209Z,23.40
2023-05-12T01:27:48.104Z,22.40
2023-05-12T01:28:49.017Z,22.90
2023-05-12T01:29:49.929Z,20.80
2023-05-12T01:30:50.856Z,22.90
2023-05-12T01:31:51.747Z,23.30
2023-05-12T01:32:52.665Z,22.70
2023-05-12T01:33:53.554Z,22.40
2023-05-12T01:34:54.455Z,22.30
2023-05-12T01:35:55.352Z,22.20
2023-05-12T01:36:56.225Z,21.10
2023-05-12T01:37:57.186Z,21.40
2023-05-12T01:38:58.077Z,20.70
2023-05-12T01:39:58.964Z,21.00
2023-05-12T01:40:59.838Z,21.20
2023-05-12T01:42:00.720Z,21.10
2023-05-12T01:43:01.629Z,21.80
2023-05-12T01:44:02.517Z,22.00
2023-05-12T01:45:03.417Z,20.70
2023-05-12T01:46:04.358Z,21.20
2023-05-12T01:47:05.242Z,20.40
2023-05-12T01:48:06.184Z,21.20
2023-05-12T01:49:07.041Z,20.20
2023-05-12T01:50:07.766Z,19.30
2023-05-12T01:51:08.727Z,22.10
2023-05-12T01:52:09.622Z,21.60
2023-05-12T01:53:10.553Z,20.80
2023-05-12T01:54:11.417Z,21.00
2023-05-12T01:55:12.307Z,21.30
2023-05-12T01:56:13.200Z,21.20
2023-05-12T01:57:14.106Z,19.80
2023-05-12T01:58:15.006Z,19.70
2023-05-12T01:59:15.892Z,19.30
2023-05-12T02:00:16.819Z,18.90
2023-05-12T02:01:17.751Z,18.40
2023-05-12T02:02:18.645Z,20.40
2023-05-12T02:03:19.677Z,18.50
2023-05-12T02:04:20.088Z,18.90
2023-05-12T02:05:20.965Z,17.70
2023-05-12T02:06:21.882Z,16.60
2023-05-12T02:07:22.753Z,17.60
2023-05-12T02:08:23.679Z,16.90
2023-05-12T02:09:24.551Z,17.70
2023-05-12T02:10:25.446Z,17.50
2023-05-12T02:11:26.350Z,16.80
2023-05-12T02:12:27.232Z,17.90
2023-05-12T02:13:28.119Z,16.40
2023-05-12T02:14:29.017Z,16.80
2023-05-12T02:15:29.925Z,16.40
2023-05-12T02:16:30.863Z,15.20
2023-05-12T02:17:31.739Z,18.40
2023-05-12T02:18:32.713Z,16.40
2023-05-12T02:19:33.556Z,16.50
2023-05-12T02:20:34.459Z,16.90
2023-05-12T02:21:35.349Z,17.30
2023-05-12T02:22:36.265Z,17.10
2023-05-12T02:23:37.293Z,17.10
2023-05-12T02:24:37.693Z,17.10
2023-05-12T02:25:38.632Z,16.50
2023-05-12T02:26:39.513Z,16.10
2023-05-12T02:27:40.409Z,16.80
2023-05-12T02:28:41.295Z,15.80
2023-05-12T02:29:42.215Z,16.60
2023-05-12T02:30:43.086Z,16.00
2023-05-12T02:31:43.992Z,16.00
2023-05-12T02:32:44.921Z,16.90
2023-05-12T02:33:45.817Z,14.90
2023-05-12T02:34:46.747Z,14.70
2023-05-12T02:35:47.609Z,14.60
2023-05-12T02:36:48.490Z,16.20
2023-05-12T02:37:49.380Z,15.90
2023-05-12T02:38:50.347Z,17.50
2023-05-12T02:39:51.215Z,17.30
2023-05-12T02:40:52.121Z,15.20
2023-05-12T02:41:53.027Z,16.10
2023-05-12T02:42:53.913Z,16.20
2023-05-12T02:43:54.821Z,17.20
2023-05-12T02:44:55.726Z,15.60
2023-05-12T02:45:56.625Z,15.20
2023-05-12T02:46:57.508Z,15.30
2023-05-12T02:47:58.459Z,15.90
2023-05-12T02:48:59.378Z,15.70
2023-05-12T02:50:00.287Z,15.00
2023-05-12T02:51:01.148Z,14.60
2023-05-12T02:52:02.048Z,13.30
2023-05-12T02:53:02.962Z,12.20
2023-05-12T02:54:03.854Z,12.10
2023-05-12T02:55:04.724Z,13.60
2023-05-12T02:56:05.625Z,10.60
2023-05-12T02:57:06.520Z,11.90
2023-05-12T02:58:07.421Z,13.00
2023-05-12T02:59:08.318Z,13.30
2023-05-12T03:00:09.212Z,12.20
2023-05-12T03:01:11.562Z,12.60
2023-05-12T03:02:10.893Z,13.00
2023-05-12T03:03:11.418Z,12.30
2023-05-12T03:04:11.830Z,11.90
2023-05-12T03:05:12.718Z,12.90
2023-05-12T03:06:13.765Z,12.70
2023-05-12T03:07:14.170Z,12.00
2023-05-12T03:08:15.063Z,12.30
2023-05-12T03:09:15.973Z,11.10
2023-05-12T03:10:16.976Z,11.90
2023-05-12T03:11:17.403Z,11.50
2023-05-12T03:12:18.305Z,11.30
2023-05-12T03:13:19.226Z,11.90
2023-05-12T03:14:20.103Z,10.50
2023-05-12T03:15:21.000Z,10.70
2023-05-12T03:16:21.930Z,10.20
2023-05-12T03:17:22.932Z,10.50
2023-05-12T03:18:23.385Z,9.90
2023-05-12T03:19:24.253Z,10.90
2023-05-12T03:20:25.131Z,10.30
2023-05-12T03:21:26.045Z,10.10
2023-05-12T03:22:26.949Z,10.20
2023-05-12T03:23:27.831Z,9.70
2023-05-12T03:24:28.754Z,9.60
2023-05-12T03:25:29.640Z,9.50
2023-05-12T03:26:30.555Z,9.50
2023-05-12T03:27:31.435Z,8.70
2023-05-12T03:28:32.340Z,9.30
2023-05-12T03:29:33.205Z,8.40
2023-05-12T03:30:34.151Z,9.30
2023-05-12T03:31:35.051Z,9.40
2023-05-12T03:32:35.938Z,9.30
2023-05-12T03:33:36.802Z,9.40
2023-05-12T03:34:37.731Z,9.40
2023-05-12T03:35:38.679Z,9.30
2023-05-12T03:36:39.535Z,9.80
2023-05-12T03:37:40.458Z,9.30
2023-05-12T03:38:41.373Z,9.20
2023-05-12T03:39:42.262Z,9.60
2023-05-12T03:40:43.147Z,8.60
2023-05-12T03:41:44.032Z,10.10
2023-05-12T03:42:44.988Z,9.90
2023-05-12T03:43:45.842Z,10.50
2023-05-12T03:44:46.731Z,34.10
2023-05-12T03:45:47.626Z,21.30
2023-05-12T03:46:56.197Z,9.90
2023-05-12T03:47:49.286Z,9.00
2023-05-12T03:48:50.054Z,10.00
2023-05-12T03:49:50.941Z,9.10
2023-05-12T03:50:51.824Z,9.70
2023-05-12T03:51:52.697Z,9.40
2023-05-12T03:52:53.581Z,9.50
2023-05-12T03:53:54.500Z,9.80
2023-05-12T03:54:55.416Z,9.20
2023-05-12T03:55:56.274Z,9.90
2023-05-12T03:56:57.160Z,9.90
2023-05-12T03:57:58.068Z,10.10
2023-05-12T03:58:58.996Z,10.00
2023-05-12T03:59:59.979Z,10.30
2023-05-12T04:01:07.912Z,10.20
2023-05-12T04:02:01.334Z,9.80
2023-05-12T04:03:02.307Z,10.40
2023-05-12T04:04:02.807Z,10.50
2023-05-12T04:05:03.686Z,10.00
2023-05-12T04:06:04.566Z,10.60
2023-05-12T04:07:05.490Z,9.80
2023-05-12T04:08:06.411Z,10.40
2023-05-12T04:09:07.269Z,10.60
2023-05-12T04:10:08.248Z,10.30
2023-05-12T04:11:09.070Z,10.50
2023-05-12T04:12:10.002Z,10.60
2023-05-12T04:13:10.887Z,10.70
2023-05-12T04:14:11.778Z,9.60
2023-05-12T04:15:12.649Z,10.00
2023-05-12T04:16:13.632Z,9.60
2023-05-12T04:17:14.522Z,9.90
2023-05-12T04:18:15.413Z,9.50
2023-05-12T04:19:16.290Z,9.60
2023-05-12T04:20:17.237Z,9.50
2023-05-12T04:21:17.715Z,9.10
2023-05-12T04:22:18.603Z,9.90
2023-05-12T04:23:19.585Z,10.10
2023-05-12T04:24:20.437Z,9.50
2023-05-12T04:25:21.350Z,10.10
2023-05-12T04:26:22.264Z,10.00
2023-05-12T04:27:23.138Z,10.30
2023-05-12T04:28:24.033Z,9.80
2023-05-12T04:29:24.932Z,9.40
2023-05-12T04:30:25.857Z,9.60
2023-05-12T04:31:26.780Z,10.00
2023-05-12T04:32:27.659Z,9.50
2023-05-12T04:33:28.539Z,10.40
2023-05-12T04:34:29.438Z,9.80
2023-05-12T04:35:30.343Z,9.50
2023-05-12T04:36:31.220Z,9.80
2023-05-12T04:37:32.119Z,9.50
2023-05-12T04:38:33.019Z,10.30
2023-05-12T04:39:33.903Z,9.80
2023-05-12T04:40:35.200Z,9.90
2023-05-12T04:41:35.633Z,9.90
2023-05-12T04:42:36.558Z,9.90
2023-05-12T04:44:38.310Z,10.20
2023-05-12T04:45:39.218Z,9.90
2023-05-12T04:46:40.182Z,10.50
2023-05-12T04:47:40.624Z,10.30
2023-05-12T04:48:41.488Z,10.30
2023-05-12T04:49:42.414Z,10.50
2023-05-12T04:50:43.327Z,11.10
2023-05-12T04:51:44.222Z,9.90
2023-05-12T04:52:45.106Z,10.60
2023-05-12T04:53:46.009Z,10.50
2023-05-12T04:54:46.911Z,9.90
2023-05-12T04:55:47.820Z,10.40
2023-05-12T04:56:48.691Z,10.10
2023-05-12T04:57:49.593Z,10.50
2023-05-12T04:58:50.497Z,11.10
2023-05-12T04:59:51.394Z,10.50
2023-05-12T05:00:52.314Z,10.00
2023-05-12T05:01:53.238Z,10.40
2023-05-12T05:02:54.304Z,10.30
2023-05-12T05:03:54.936Z,10.10
2023-05-12T05:04:55.362Z,10.90
2023-05-12T05:05:56.260Z,10.50
2023-05-12T05:06:57.148Z,10.90
2023-05-12T05:07:58.051Z,10.50
2023-05-12T05:08:58.949Z,10.40
2023-05-12T05:09:59.889Z,10.90
2023-05-12T05:11:00.776Z,10.30
2023-05-12T05:12:01.637Z,10.60
2023-05-12T05:13:02.545Z,11.00
2023-05-12T05:14:03.426Z,10.40
2023-05-12T05:15:04.314Z,10.50
2023-05-12T05:16:05.282Z,10.40
2023-05-12T05:17:06.245Z,10.20
2023-05-12T05:18:06.794Z,10.00
2023-05-12T05:19:19.519Z,9.90
2023-05-12T05:20:11.624Z,10.00
2023-05-12T05:21:09.522Z,10.70
2023-05-12T05:22:10.054Z,10.20
2023-05-12T05:23:10.481Z,10.00
2023-05-12T05:24:11.368Z,10.30
2023-05-12T05:25:12.253Z,9.60
2023-05-12T05:26:13.221Z,9.90
2023-05-12T05:27:14.146Z,10.30
2023-05-12T05:28:14.998Z,9.90
2023-05-12T05:29:15.887Z,10.70
2023-05-12T05:30:16.790Z,10.10
2023-05-12T05:31:17.698Z,9.90
2023-05-12T05:32:18.580Z,9.60
2023-05-12T05:33:19.468Z,9.80
2023-05-12T05:34:20.410Z,9.40
2023-05-12T05:35:21.539Z,9.90
2023-05-12T05:36:22.069Z,9.10
2023-05-12T05:37:22.985Z,9.80
2023-05-12T05:38:23.865Z,9.60
2023-05-12T05:39:24.752Z,9.80
2023-05-12T05:40:25.640Z,10.10
2023-05-12T05:41:26.604Z,9.80
2023-05-12T05:42:27.450Z,9.40
2023-05-12T05:43:28.323Z,10.00
2023-05-12T05:44:29.205Z,9.30
2023-05-12T05:45:30.092Z,9.60
2023-05-12T05:46:31.056Z,9.00
2023-05-12T05:47:31.989Z,8.60
2023-05-12T05:48:32.877Z,9.50
2023-05-12T05:49:33.766Z,8.70
2023-05-12T05:50:34.670Z,8.60
2023-05-12T05:51:35.607Z,9.00
2023-05-12T05:52:36.479Z,9.10
2023-05-12T05:53:37.366Z,9.40
2023-05-12T05:54:38.297Z,9.20
2023-05-12T05:55:39.194Z,8.40
2023-05-12T05:56:40.110Z,8.90
2023-05-12T05:57:40.970Z,9.10
2023-05-12T05:58:41.852Z,8.80
2023-05-12T05:59:42.758Z,8.80
2023-05-12T06:00:43.651Z,8.70
2023-05-12T06:01:44.542Z,8.40
2023-05-12T06:02:45.491Z,8.30
2023-05-12T06:03:46.442Z,8.20
2023-05-12T06:04:47.349Z,7.90
2023-05-12T06:05:48.264Z,8.00
2023-05-12T06:06:49.141Z,8.10
2023-05-12T06:07:50.032Z,8.50
2023-05-12T06:08:50.912Z,7.80
2023-05-12T06:09:51.825Z,7.70
2023-05-12T06:10:52.708Z,7.80
2023-05-12T06:11:53.613Z,7.30
2023-05-12T06:12:54.475Z,7.30
2023-05-12T06:13:55.381Z,8.00
2023-05-12T06:14:56.297Z,7.90
2023-05-12T06:15:57.174Z,7.50
2023-05-12T06:16:58.096Z,7.10
2023-05-12T06:17:59.040Z,7.20
2023-05-12T06:18:59.997Z,7.20
2023-05-12T06:20:00.859Z,7.50
2023-05-12T06:21:01.760Z,7.30
2023-05-12T06:22:02.631Z,7.30
2023-05-12T06:23:03.514Z,7.20
2023-05-12T06:24:04.439Z,6.80
2023-05-12T06:25:05.305Z,6.90
2023-05-12T06:26:06.190Z,7.00
2023-05-12T06:27:07.111Z,7.10
2023-05-12T06:28:07.989Z,7.20
2023-05-12T06:29:08.892Z,7.00
2023-05-12T06:30:09.788Z,7.50
2023-05-12T06:31:10.665Z,6.80
2023-05-12T06:32:11.656Z,7.00
2023-05-12T06:33:12.072Z,6.80
2023-05-12T06:34:12.956Z,6.60
2023-05-12T06:35:13.839Z,6.80
2023-05-12T06:36:14.766Z,6.30
2023-05-12T06:37:15.699Z,6.30
2023-05-12T06:38:16.604Z,6.70
2023-05-12T06:39:17.487Z,6.20
2023-05-12T06:40:18.376Z,5.90
2023-05-12T06:41:19.257Z,6.00
2023-05-12T06:42:20.203Z,5.50
2023-05-12T06:43:21.051Z,5.80
2023-05-12T06:44:21.933Z,6.30
2023-05-12T06:45:22.972Z,6.10
2023-05-12T06:46:23.435Z,5.90
2023-05-12T06:47:24.321Z,5.90
2023-05-12T06:48:25.189Z,5.90
2023-05-12T06:49:26.081Z,5.30
2023-05-12T06:50:27.020Z,6.10
2023-05-12T06:51:27.938Z,5.50
2023-05-12T06:52:28.836Z,5.50
2023-05-12T06:53:29.732Z,5.70
2023-05-12T06:54:30.615Z,5.40
2023-05-12T06:55:31.497Z,5.70
2023-05-12T06:56:32.404Z,4.90
2023-05-12T06:57:33.426Z,5.20
2023-05-12T06:58:34.274Z,5.40
2023-05-12T06:59:35.155Z,4.90
2023-05-12T07:00:36.079Z,5.20
2023-05-12T07:01:37.010Z,5.40
2023-05-12T07:02:37.912Z,5.00
2023-05-12T07:03:38.904Z,4.80
2023-05-12T07:04:39.287Z,5.30
2023-05-12T07:05:40.221Z,5.00
2023-05-12T07:06:41.094Z,5.00
2023-05-12T07:07:41.978Z,5.20
2023-05-12T07:08:42.854Z,4.60
2023-05-12T07:09:43.745Z,4.90
2023-05-12T07:10:44.642Z,4.80
2023-05-12T07:11:45.552Z,5.40
2023-05-12T07:12:46.433Z,4.70
2023-05-12T07:13:47.302Z,4.70
2023-05-12T07:14:48.207Z,4.90
2023-05-12T07:15:49.162Z,4.50
2023-05-12T07:16:50.012Z,4.30
2023-05-12T07:17:50.923Z,4.50
2023-05-12T07:18:51.841Z,5.00
2023-05-12T07:19:52.768Z,4.30
2023-05-12T07:20:53.744Z,4.30
2023-05-12T07:21:54.154Z,3.90
2023-05-12T07:22:55.029Z,4.70
2023-05-12T07:23:55.933Z,4.30
2023-05-12T07:24:56.936Z,4.00
2023-05-12T07:25:57.344Z,4.40
2023-05-12T07:26:58.229Z,4.30
2023-05-12T07:27:59.149Z,4.20
2023-05-12T07:29:00.034Z,4.20
2023-05-12T07:30:00.918Z,4.30
2023-05-12T07:31:01.839Z,3.90
2023-05-12T07:32:02.689Z,3.90
2023-05-12T07:33:03.634Z,4.10
2023-05-12T07:34:04.535Z,3.90
2023-05-12T07:35:05.418Z,4.30
2023-05-12T07:36:06.299Z,4.10
2023-05-12T07:37:07.201Z,3.80
2023-05-12T07:38:08.103Z,3.80
2023-05-12T07:39:09.015Z,3.80
2023-05-12T07:40:09.911Z,3.90
2023-05-12T07:41:10.780Z,3.60
2023-05-12T07:42:11.665Z,3.60
2023-05-12T07:43:12.604Z,3.70
2023-05-12T07:44:13.470Z,3.80
2023-05-12T07:45:14.369Z,3.80
2023-05-12T07:46:15.243Z,3.80
2023-05-12T07:47:16.197Z,4.00
2023-05-12T07:48:17.069Z,3.60
2023-05-12T07:49:17.963Z,3.40
2023-05-12T07:50:18.831Z,3.80
2023-05-12T07:51:19.720Z,3.70
2023-05-12T07:52:20.626Z,3.90
2023-05-12T07:53:21.520Z,3.90
2023-05-12T07:54:22.413Z,3.90
2023-05-12T07:55:23.457Z,3.60
2023-05-12T07:56:23.933Z,3.80
2023-05-12T07:57:24.842Z,3.50
2023-05-12T07:58:26.073Z,3.60
2023-05-12T07:59:26.415Z,3.90
2023-05-12T08:00:27.303Z,3.50
2023-05-12T08:01:28.218Z,3.00
2023-05-12T08:02:29.154Z,3.70
2023-05-12T08:03:30.078Z,3.70
2023-05-12T08:04:31.038Z,3.50
2023-05-12T08:05:31.883Z,3.80
2023-05-12T08:06:32.794Z,3.40
2023-05-12T08:07:33.713Z,3.00
2023-05-12T08:08:34.634Z,3.30
2023-05-12T08:09:35.504Z,3.20
2023-05-12T08:10:36.406Z,3.50
2023-05-12T08:11:37.308Z,3.10
2023-05-12T08:12:38.192Z,3.20
2023-05-12T08:13:39.127Z,3.00
2023-05-12T08:14:39.980Z,3.10
2023-05-12T08:15:40.891Z,3.00
2023-05-12T08:16:41.797Z,3.00
2023-05-12T08:17:42.660Z,3.20
2023-05-12T08:18:43.550Z,3.30
2023-05-12T08:19:44.432Z,3.30
2023-05-12T08:20:45.333Z,2.80
2023-05-12T08:21:46.213Z,3.40
2023-05-12T08:22:47.105Z,3.00
2023-05-12T08:23:47.991Z,3.00
2023-05-12T08:24:48.894Z,3.00
2023-05-12T08:25:49.807Z,3.20
2023-05-12T08:26:50.696Z,2.80
2023-05-12T08:27:52.486Z,2.80
2023-05-12T08:28:52.521Z,2.60
2023-05-12T08:29:52.901Z,2.70
2023-05-12T08:30:53.805Z,2.90
2023-05-12T08:31:54.695Z,2.60
2023-05-12T08:32:55.579Z,2.70
2023-05-12T08:34:08.953Z,2.60
2023-05-12T08:34:58.259Z,2.70
2023-05-12T08:35:58.142Z,2.50
2023-05-12T08:36:59.024Z,2.40
2023-05-12T08:37:59.926Z,2.50
2023-05-12T08:39:00.815Z,2.30
2023-05-12T08:40:01.696Z,2.50
2023-05-12T08:41:02.591Z,2.70
2023-05-12T08:42:03.479Z,2.40
2023-05-12T08:43:04.388Z,2.50
2023-05-12T08:44:05.494Z,2.50
2023-05-12T08:45:05.826Z,2.60
2023-05-12T08:46:06.720Z,2.60
2023-05-12T08:47:07.601Z,2.40
2023-05-12T08:48:08.518Z,2.30
2023-05-12T08:49:09.389Z,2.50
2023-05-12T08:50:10.284Z,2.30
2023-05-12T08:51:11.154Z,2.60
2023-05-12T08:52:12.039Z,2.30
2023-05-12T08:53:12.945Z,2.40
2023-05-12T08:54:13.826Z,2.20
2023-05-12T08:55:14.716Z,2.50
2023-05-12T08:57:16.559Z,2.60
2023-05-12T08:58:17.049Z,2.80
2023-05-12T08:59:17.998Z,2.50
2023-05-12T09:00:19.083Z,2.40
2023-05-12T09:01:19.668Z,2.50
2023-05-12T09:02:20.705Z,2.60
2023-05-12T09:03:21.626Z,2.50
2023-05-12T09:04:22.576Z,2.10
2023-05-12T09:05:23.591Z,2.20
2023-05-12T09:06:24.094Z,2.80
2023-05-12T09:07:25.007Z,2.20
2023-05-12T09:08:25.899Z,2.30
2023-05-12T09:09:27.503Z,2.60
2023-05-12T09:10:35.074Z,2.10
2023-05-12T09:11:29.176Z,2.30
2023-05-12T09:12:29.053Z,2.10
2023-05-12T09:13:29.936Z,2.20
2023-05-12T09:14:30.994Z,2.30
2023-05-12T09:15:31.324Z,2.20
2023-05-12T09:16:32.375Z,2.50
2023-05-12T09:17:32.778Z,2.30
2023-05-12T09:18:33.695Z,2.30
2023-05-12T09:19:34.545Z,2.20
2023-05-12T09:20:35.477Z,2.30
2023-05-12T09:21:36.360Z,2.30
2023-05-12T09:22:37.251Z,2.40
2023-05-12T09:23:38.134Z,2.40
2023-05-12T09:24:39.036Z,2.20
2023-05-12T09:25:39.924Z,2.20
2023-05-12T09:26:40.816Z,2.20
2023-05-12T09:27:41.693Z,2.30
2023-05-12T09:28:42.581Z,2.20
2023-05-12T09:29:51.763Z,2.40
2023-05-12T09:30:45.312Z,2.00
2023-05-12T09:31:45.217Z,2.10
2023-05-12T09:32:46.074Z,2.30
2023-05-12T09:33:47.051Z,2.30
2023-05-12T09:34:56.525Z,2.00
2023-05-12T09:35:48.890Z,2.10
2023-05-12T09:36:49.791Z,2.10
2023-05-12T09:37:50.677Z,2.10
2023-05-12T09:38:51.569Z,2.10
2023-05-12T09:39:52.565Z,2.50
2023-05-12T09:40:53.415Z,2.10
2023-05-12T09:41:54.296Z,2.20
2023-05-12T09:42:55.178Z,2.10
2023-05-12T09:43:56.089Z,2.20
2023-05-12T09:44:57.041Z,2.00
2023-05-12T09:45:57.930Z,2.30
2023-05-12T09:46:58.796Z,2.20
2023-05-12T09:47:59.755Z,2.20
2023-05-12T09:49:09.606Z,2.30
2023-05-12T09:50:01.532Z,2.30
2023-05-12T09:51:02.405Z,2.30
2023-05-12T09:52:03.295Z,2.10
2023-05-12T09:53:04.182Z,3.00
2023-05-12T09:54:07.152Z,2.60
2023-05-12T09:55:05.707Z,3.10
2023-05-12T09:56:06.595Z,2.90
2023-05-12T09:57:07.488Z,3.00
2023-05-12T09:58:08.395Z,3.30
2023-05-12T09:59:09.291Z,3.10
2023-05-12T10:00:20.218Z,2.90
2023-05-12T10:09:58.068Z,2.90
2023-05-12T10:10:56.961Z,4.00
2023-05-12T10:11:57.853Z,3.70
2023-05-12T10:12:59.506Z,3.70
2023-05-12T10:13:59.448Z,3.40
2023-05-12T10:14:59.912Z,3.80
2023-05-12T10:16:00.888Z,3.90
2023-05-12T10:17:01.777Z,3.50
2023-05-12T10:18:02.693Z,3.50
2023-05-12T10:19:03.585Z,3.70
2023-05-12T10:20:04.442Z,4.40
2023-05-12T10:21:05.325Z,4.00
2023-05-12T10:22:06.238Z,3.90
2023-05-12T10:23:07.125Z,3.90
2023-05-12T10:24:08.015Z,4.50
2023-05-12T10:25:08.945Z,4.20
2023-05-12T10:26:09.852Z,4.20
2023-05-12T10:27:10.795Z,4.20
2023-05-12T10:28:11.705Z,4.10
2023-05-12T10:29:12.699Z,4.00
2023-05-12T10:30:13.102Z,4.00
2023-05-12T10:31:14.130Z,4.20
2023-05-12T10:32:14.971Z,4.10
2023-05-12T10:33:15.891Z,4.20
2023-05-12T10:34:16.816Z,3.90
2023-05-12T10:35:17.754Z,4.30
2023-05-12T10:36:18.714Z,4.10
2023-05-12T10:37:19.599Z,4.20
2023-05-12T10:38:20.490Z,4.80
2023-05-12T10:39:21.380Z,4.50
2023-05-12T10:40:22.411Z,4.60
2023-05-12T10:41:22.846Z,4.70
2023-05-12T10:45:18.803Z,4.30
2023-05-12T10:46:26.986Z,4.50
2023-05-12T10:47:19.897Z,4.30
2023-05-12T10:48:20.388Z,4.50
2023-05-12T10:49:20.883Z,4.60
2023-05-12T10:50:21.786Z,4.20
2023-05-12T10:51:22.679Z,4.80
2023-05-12T10:52:23.552Z,5.00
2023-05-12T10:53:24.450Z,5.10
2023-05-12T10:54:34.303Z,5.20
2023-05-12T10:55:26.481Z,4.80
2023-05-12T10:56:27.148Z,4.80
2023-05-12T10:57:27.939Z,4.80
2023-05-12T10:58:29.083Z,4.60
2023-05-12T10:59:29.645Z,4.90
2023-05-12T11:00:30.427Z,5.00
2023-05-12T11:01:30.803Z,4.90
2023-05-12T11:02:32.546Z,5.00
2023-05-12T11:03:33.362Z,5.10
2023-05-12T11:04:33.886Z,4.80
2023-05-12T11:05:33.920Z,4.70
2023-05-12T11:06:34.551Z,4.50
2023-05-12T11:07:35.543Z,4.80
2023-05-12T11:08:35.982Z,5.10
2023-05-12T11:09:40.243Z,5.00
2023-05-12T11:10:39.000Z,4.50
2023-05-12T11:11:38.420Z,4.60
2023-05-12T11:12:38.876Z,4.80
2023-05-12T11:13:39.825Z,4.90
2023-05-12T11:14:40.718Z,4.70
2023-05-12T11:15:41.600Z,4.90
2023-05-12T11:16:42.684Z,4.80
2023-05-12T11:17:43.148Z,4.40
2023-05-12T11:18:44.071Z,4.40
2023-05-12T11:19:44.950Z,4.60
2023-05-12T11:20:45.836Z,4.40
2023-05-12T11:21:46.756Z,4.30
2023-05-12T11:22:47.654Z,4.50
2023-05-12T11:23:48.537Z,4.60
2023-05-12T11:24:49.452Z,4.20
2023-05-12T11:25:50.356Z,4.30
2023-05-12T11:26:51.217Z,4.50
2023-05-12T11:27:52.110Z,4.80
2023-05-12T11:28:52.989Z,4.80
2023-05-12T11:29:53.871Z,4.90
2023-05-12T11:30:55.656Z,4.70
2023-05-12T11:31:55.833Z,4.50
2023-05-12T11:32:56.745Z,4.20
2023-05-12T11:34:10.841Z,4.40
2023-05-12T11:34:59.402Z,4.30
2023-05-12T11:35:59.310Z,4.30
2023-05-12T11:37:00.218Z,4.30
2023-05-12T11:38:01.098Z,4.90
2023-05-12T11:39:01.976Z,4.40
2023-05-12T11:40:02.918Z,4.70
2023-05-12T11:41:03.834Z,5.70
2023-05-12T11:42:12.137Z,5.70
2023-05-12T11:43:06.473Z,5.30
2023-05-12T11:44:06.379Z,4.20
2023-05-12T11:45:07.346Z,3.80
2023-05-12T11:46:08.243Z,4.70
2023-05-12T11:47:09.257Z,4.70
2023-05-12T11:48:10.199Z,4.20
2023-05-12T11:49:11.240Z,4.60
2023-05-12T11:50:11.614Z,3.90
2023-05-12T11:51:12.501Z,4.20
2023-05-12T11:52:13.384Z,4.20
2023-05-12T11:53:14.285Z,4.00
2023-05-12T11:54:15.189Z,4.10
2023-05-12T11:55:16.198Z,4.20
2023-05-12T11:56:16.627Z,4.50
2023-05-12T11:57:17.503Z,4.00
2023-05-12T11:58:18.427Z,4.00
2023-05-12T11:59:19.401Z,4.60
2023-05-12T12:00:20.435Z,4.00
2023-05-12T12:01:20.835Z,4.20
2023-05-12T12:02:21.793Z,3.90
2023-05-12T12:03:22.799Z,4.10
2023-05-12T12:04:23.219Z,4.00
2023-05-12T12:05:24.115Z,3.90
2023-05-12T12:06:25.003Z,3.70
2023-05-12T12:07:25.890Z,4.00
2023-05-12T12:08:26.817Z,4.70
2023-05-12T12:09:27.728Z,4.20
2023-05-12T12:10:28.609Z,4.20
2023-05-12T12:11:29.496Z,4.10
2023-05-12T12:12:30.397Z,4.50
2023-05-12T12:13:31.330Z,4.00
2023-05-12T12:14:32.206Z,4.70
2023-05-12T12:15:33.098Z,4.20
2023-05-12T12:16:34.014Z,3.90
2023-05-12T12:17:34.912Z,3.30
2023-05-12T12:18:36.081Z,3.20
2023-05-12T12:19:36.527Z,3.40
2023-05-12T12:20:37.462Z,3.80
2023-05-12T12:21:38.421Z,3.90
2023-05-12T12:22:39.306Z,3.60
2023-05-12T12:23:50.350Z,3.90
2023-05-12T12:24:42.019Z,4.00
2023-05-12T12:25:41.925Z,4.20
2023-05-12T12:26:42.912Z,4.10
2023-05-12T12:27:43.804Z,4.00
2023-05-12T12:28:44.738Z,3.70
2023-05-12T12:29:45.630Z,4.20
2023-05-12T12:30:46.562Z,3.90
2023-05-12T12:31:47.425Z,4.00
2023-05-12T12:32:48.418Z,4.20
2023-05-12T12:33:48.990Z,4.10
2023-05-12T12:34:50.759Z,4.00
2023-05-12T12:35:50.644Z,4.00
2023-05-12T12:36:51.588Z,4.20
2023-05-12T12:37:52.495Z,3.60
2023-05-12T12:38:53.374Z,4.30
2023-05-12T12:39:54.260Z,4.20
2023-05-12T12:40:55.141Z,3.70
2023-05-12T12:41:56.054Z,4.10
2023-05-12T12:42:56.945Z,4.10
2023-05-12T12:43:57.844Z,4.10
2023-05-12T12:44:58.733Z,3.90
2023-05-12T12:45:59.609Z,4.20
2023-05-12T12:47:00.610Z,4.10
2023-05-12T12:48:01.500Z,4.00
2023-05-12T12:49:02.366Z,4.00
2023-05-12T12:50:03.261Z,4.40
2023-05-12T12:51:04.158Z,4.40
2023-05-12T12:52:05.083Z,4.00
2023-05-12T12:53:05.968Z,4.30
2023-05-12T12:54:06.860Z,3.90
2023-05-12T12:55:07.743Z,4.20
2023-05-12T12:56:08.677Z,4.30
2023-05-12T12:57:09.572Z,4.30
2023-05-12T12:58:10.460Z,3.80
2023-05-12T12:59:11.363Z,3.70
2023-05-12T13:00:12.252Z,4.00
2023-05-12T13:01:13.306Z,4.20
2023-05-12T13:02:13.843Z,4.00
2023-05-12T13:03:14.826Z,3.90
2023-05-12T13:04:15.187Z,4.10
2023-05-12T13:05:16.181Z,3.60
2023-05-12T13:06:16.881Z,3.90
2023-05-12T13:07:17.267Z,3.80
2023-05-12T13:08:18.149Z,3.90
2023-05-12T13:09:20.156Z,3.90
2023-05-12T13:10:19.708Z,3.70
2023-05-12T13:11:20.144Z,4.00
2023-05-12T13:12:21.064Z,4.30
2023-05-12T13:13:21.921Z,3.60
2023-05-12T13:14:22.820Z,3.80
2023-05-12T13:15:24.176Z,3.80
2023-05-12T13:16:24.260Z,4.10
2023-05-12T13:17:25.139Z,3.90
2023-05-12T13:18:26.119Z,4.40
2023-05-12T13:19:26.999Z,4.40
2023-05-12T13:20:27.953Z,4.10
2023-05-12T13:21:28.833Z,4.20
2023-05-12T13:22:29.720Z,4.20
2023-05-12T13:23:30.631Z,3.80
2023-05-12T13:24:31.553Z,3.60
2023-05-12T13:25:32.431Z,3.40
2023-05-12T13:26:33.319Z,4.00
2023-05-12T13:27:34.257Z,4.30
2023-05-12T13:28:43.904Z,3.50
2023-05-12T13:29:35.832Z,4.00
2023-05-12T13:30:36.815Z,3.90
2023-05-12T13:31:37.655Z,3.80
2023-05-12T13:32:38.570Z,4.20
2023-05-12T13:33:39.487Z,3.90
2023-05-12T13:34:40.395Z,3.80